Time;durP1;ratioP1;P1;durP2;ratioP2;P2;SDS_P1;SDS_P2;PMS_P1;PMS_P2;Temp;Humidity;BMP_temperature;BMP_pressure;BME280_temperature;BME280_humidity;BME280_pressure;Samples;Min_cycle;Max_cycle;Signal;HPM_P1;HPM_P2
2022/10/16 00:04:45;;;;;;;76.97;41.15;;;;;;;;;;12970559;22;20875;-87
2022/10/16 00:09:48;;;;;;;75.22;42.08;;;;;;;;;;12969794;22;20367;-87
2022/10/16 00:14:50;;;;;;;79.83;41.57;;;;;;;;;;12970065;22;20405;-87
2022/10/16 00:19:52;;;;;;;77.73;41.23;;;;;;;;;;12968431;22;20445;-86
2022/10/16 00:24:55;;;;;;;78.17;42.10;;;;;;;;;;12970253;22;20417;-87
2022/10/16 00:29:57;;;;;;;77.25;41.45;;;;;;;;;;12968097;22;20401;-88
2022/10/16 00:34:59;;;;;;;78.20;41.28;;;;;;;;;;12969553;22;20397;-88
2022/10/16 00:40:02;;;;;;;80.93;42.67;;;;;;;;;;12967930;22;20394;-87
2022/10/16 00:45:04;;;;;;;75.97;41.83;;;;;;;;;;12966023;22;20469;-88
2022/10/16 00:50:10;;;;;;;75.43;41.50;;;;;;;;;;12968797;22;20366;-88
2022/10/16 00:55:13;;;;;;;75.45;41.45;;;;;;;;;;12968710;22;20362;-88
2022/10/16 01:00:18;;;;;;;78.50;41.25;;;;;;;;;;12969126;22;20919;-88
2022/10/16 01:05:22;;;;;;;78.07;40.65;;;;;;;;;;12968859;22;20382;-88
2022/10/16 01:10:33;;;;;;;78.70;41.15;;;;;;;;;;12969271;22;20460;-88
2022/10/16 01:15:38;;;;;;;81.70;41.00;;;;;;;;;;12969249;22;20361;-88
2022/10/16 01:20:45;;;;;;;79.75;41.35;;;;;;;;;;12969639;22;20373;-88
2022/10/16 01:26:10;;;;;;;78.60;42.53;;;;;;;;;;12961267;22;20378;-87
2022/10/16 01:31:18;;;;;;;78.07;41.60;;;;;;;;;;12969075;22;20405;-88
2022/10/16 01:36:26;;;;;;;78.83;41.10;;;;;;;;;;12969264;22;20393;-88
2022/10/16 01:41:33;;;;;;;75.22;41.47;;;;;;;;;;12968743;22;20413;-89
2022/10/16 01:46:40;;;;;;;80.45;41.80;;;;;;;;;;12968830;22;20712;-88
2022/10/16 01:51:44;;;;;;;77.40;41.80;;;;;;;;;;12968606;22;20447;-89
2022/10/16 01:56:48;;;;;;;79.53;41.83;;;;;;;;;;12967655;22;20402;-88
2022/10/16 02:01:56;;;;;;;80.05;42.42;;;;;;;;;;12940880;22;20401;-86
2022/10/16 02:06:58;;;;;;;83.77;43.57;;;;;;;;;;12968721;22;20362;-88
2022/10/16 02:12:04;;;;;;;78.63;43.05;;;;;;;;;;12968284;22;20365;-88
2022/10/16 02:17:13;;;;;;;83.05;44.03;;;;;;;;;;12967649;22;20834;-87
2022/10/16 02:22:19;;;;;;;84.13;43.92;;;;;;;;;;12967770;22;20387;-89
2022/10/16 02:27:26;;;;;;;78.17;42.90;;;;;;;;;;12967296;22;20928;-88
2022/10/16 02:32:32;;;;;;;81.95;43.33;;;;;;;;;;12941587;22;20854;-88
2022/10/16 02:37:35;;;;;;;80.47;42.07;;;;;;;;;;12968253;22;20382;-88
2022/10/16 02:42:40;;;;;;;78.87;42.30;;;;;;;;;;12966621;22;20861;-88
2022/10/16 02:47:43;;;;;;;76.73;40.77;;;;;;;;;;12967841;22;20355;-89
2022/10/16 02:52:45;;;;;;;79.18;41.72;;;;;;;;;;12968274;22;20834;-89
2022/10/16 02:57:47;;;;;;;76.55;40.90;;;;;;;;;;12967420;22;20924;-88
2022/10/16 03:02:50;;;;;;;70.78;39.55;;;;;;;;;;12968854;22;20842;-88
2022/10/16 03:07:52;;;;;;;68.65;38.58;;;;;;;;;;12970954;22;20382;-88
2022/10/16 03:12:54;;;;;;;70.72;39.33;;;;;;;;;;12952404;22;20359;-88
2022/10/16 03:17:58;;;;;;;72.83;39.50;;;;;;;;;;12975367;22;20394;-88
2022/10/16 03:23:00;;;;;;;70.50;39.00;;;;;;;;;;12970781;22;20382;-89
2022/10/16 03:28:02;;;;;;;69.27;39.43;;;;;;;;;;12971033;22;20453;-88
2022/10/16 03:33:06;;;;;;;69.43;38.27;;;;;;;;;;12970350;22;20370;-88
2022/10/16 03:38:07;;;;;;;67.88;38.15;;;;;;;;;;12970605;22;20689;-88
2022/10/16 03:43:09;;;;;;;66.45;37.38;;;;;;;;;;12970598;22;20461;-88
2022/10/16 03:48:13;;;;;;;70.78;38.17;;;;;;;;;;12970477;22;20390;-88
2022/10/16 03:53:15;;;;;;;66.72;36.70;;;;;;;;;;12970563;22;20362;-88
2022/10/16 03:58:17;;;;;;;67.05;36.50;;;;;;;;;;12970924;22;20393;-88
2022/10/16 04:03:21;;;;;;;63.00;35.37;;;;;;;;;;12963745;22;20422;-88
2022/10/16 04:08:23;;;;;;;63.47;35.28;;;;;;;;;;12969203;22;20362;-88
2022/10/16 04:13:24;;;;;;;63.50;35.58;;;;;;;;;;12968531;22;20402;-88
2022/10/16 04:18:28;;;;;;;65.28;36.13;;;;;;;;;;12970201;22;20366;-88
2022/10/16 04:23:30;;;;;;;61.80;35.47;;;;;;;;;;12969868;22;20409;-89
2022/10/16 04:28:50;;;;;;;64.57;35.80;;;;;;;;;;10615219;27;20390;-88
2022/10/16 04:33:51;;;;;;;60.97;34.20;;;;;;;;;;10584258;27;20399;-87
2022/10/16 04:38:53;;;;;;;61.53;34.17;;;;;;;;;;10557743;28;20750;-87
2022/10/16 04:43:56;;;;;;;60.42;34.15;;;;;;;;;;10558177;28;20414;-87
2022/10/16 04:48:59;;;;;;;62.17;34.38;;;;;;;;;;10555017;28;20400;-86
2022/10/16 04:54:01;;;;;;;63.38;35.13;;;;;;;;;;10557759;28;20406;-87
2022/10/16 04:59:04;;;;;;;63.75;34.25;;;;;;;;;;10558806;28;20459;-89
2022/10/16 05:04:06;;;;;;;62.63;34.92;;;;;;;;;;10555070;28;20420;-89
2022/10/16 05:09:09;;;;;;;63.85;35.13;;;;;;;;;;10554742;28;20487;-89
2022/10/16 05:14:12;;;;;;;61.30;34.90;;;;;;;;;;10556796;28;20423;-89
2022/10/16 05:19:14;;;;;;;64.82;35.92;;;;;;;;;;10557386;28;20920;-89
2022/10/16 05:24:16;;;;;;;67.32;35.75;;;;;;;;;;10556552;28;20415;-88
2022/10/16 05:29:19;;;;;;;62.70;34.57;;;;;;;;;;10551949;28;20490;-88
2022/10/16 05:34:22;;;;;;;65.03;35.45;;;;;;;;;;10545552;28;20495;-89
2022/10/16 05:39:23;;;;;;;65.75;35.45;;;;;;;;;;10534451;28;20396;-89
2022/10/16 05:44:27;;;;;;;65.82;36.55;;;;;;;;;;10528708;28;20411;-89
2022/10/16 05:49:28;;;;;;;65.38;36.33;;;;;;;;;;10528055;28;20399;-88
2022/10/16 05:54:31;;;;;;;65.90;35.50;;;;;;;;;;10522575;28;20396;-88
2022/10/16 05:59:34;;;;;;;70.82;36.92;;;;;;;;;;10526703;28;20389;-88
2022/10/16 06:04:36;;;;;;;67.90;36.20;;;;;;;;;;10527479;28;20495;-89
2022/10/16 06:09:38;;;;;;;70.65;37.22;;;;;;;;;;10522917;28;20410;-88
2022/10/16 06:14:41;;;;;;;70.47;37.73;;;;;;;;;;10527262;28;20488;-88
2022/10/16 06:19:43;;;;;;;68.95;37.53;;;;;;;;;;10527400;28;20416;-88
2022/10/16 06:24:45;;;;;;;68.50;35.43;;;;;;;;;;10527270;28;20900;-89
2022/10/16 06:29:48;;;;;;;67.77;36.37;;;;;;;;;;10527670;28;20432;-88
2022/10/16 06:34:50;;;;;;;65.40;36.37;;;;;;;;;;10524913;28;21613;-89
2022/10/16 06:39:53;;;;;;;63.42;35.67;;;;;;;;;;10526216;28;20392;-88
2022/10/16 06:44:57;;;;;;;66.15;36.53;;;;;;;;;;10526433;28;20768;-88
2022/10/16 06:49:58;;;;;;;64.72;36.47;;;;;;;;;;10524173;28;20485;-88
2022/10/16 06:55:00;;;;;;;63.65;34.45;;;;;;;;;;10527048;28;20409;-89
2022/10/16 07:00:04;;;;;;;66.67;34.87;;;;;;;;;;10525043;28;20487;-88
2022/10/16 07:05:07;;;;;;;66.47;35.15;;;;;;;;;;10524028;28;20436;-88
2022/10/16 07:10:09;;;;;;;60.90;34.72;;;;;;;;;;10520677;28;20481;-88
2022/10/16 07:15:13;;;;;;;61.85;34.88;;;;;;;;;;10525120;28;20393;-89
2022/10/16 07:20:15;;;;;;;66.10;34.97;;;;;;;;;;10525140;28;20475;-88
2022/10/16 07:25:17;;;;;;;65.00;36.47;;;;;;;;;;10524639;28;20762;-88
2022/10/16 07:30:20;;;;;;;66.82;35.65;;;;;;;;;;10523800;28;20435;-88
2022/10/16 07:35:22;;;;;;;60.10;34.38;;;;;;;;;;10524155;28;20523;-89
2022/10/16 07:40:26;;;;;;;60.00;34.47;;;;;;;;;;10523113;28;20511;-88
2022/10/16 07:45:30;;;;;;;60.60;33.53;;;;;;;;;;10522387;28;20413;-88
2022/10/16 07:50:31;;;;;;;59.58;34.00;;;;;;;;;;10519407;28;20925;-89
2022/10/16 07:55:33;;;;;;;58.38;33.67;;;;;;;;;;10520614;28;20935;-88
2022/10/16 08:00:37;;;;;;;56.03;32.58;;;;;;;;;;10519580;28;20410;-88
2022/10/16 08:05:39;;;;;;;57.47;33.60;;;;;;;;;;10521768;28;20416;-89
2022/10/16 08:10:41;;;;;;;56.92;32.97;;;;;;;;;;10521383;28;20479;-88
2022/10/16 08:15:45;;;;;;;56.33;33.53;;;;;;;;;;10521970;28;20752;-88
2022/10/16 08:20:47;;;;;;;61.92;34.03;;;;;;;;;;10519339;28;20514;-88
2022/10/16 08:25:49;;;;;;;59.63;32.55;;;;;;;;;;10521388;28;20515;-89
2022/10/16 08:30:52;;;;;;;57.83;34.55;;;;;;;;;;10521789;28;20416;-89
2022/10/16 08:35:54;;;;;;;58.13;33.53;;;;;;;;;;10526510;28;20523;-89
2022/10/16 08:41:16;;;;;;;58.57;32.93;;;;;;;;;;10525589;28;20430;-89
2022/10/16 08:46:34;;;;;;;58.60;33.20;;;;;;;;;;10519376;28;20499;-88
2022/10/16 08:51:37;;;;;;;58.35;32.95;;;;;;;;;;10520654;28;20926;-89
2022/10/16 08:56:39;;;;;;;57.83;33.63;;;;;;;;;;10513681;28;20475;-88
2022/10/16 09:01:45;;;;;;;57.72;32.63;;;;;;;;;;10520473;28;20887;-89
2022/10/16 09:06:51;;;;;;;59.08;33.17;;;;;;;;;;10521321;28;20412;-89
2022/10/16 09:11:59;;;;;;;55.23;32.70;;;;;;;;;;10522311;28;20396;-89
2022/10/16 09:17:15;;;;;;;58.38;34.17;;;;;;;;;;10528425;28;20399;-89
2022/10/16 09:22:22;;;;;;;61.05;34.22;;;;;;;;;;10528760;28;20635;-88
2022/10/16 09:27:24;;;;;;;61.58;33.35;;;;;;;;;;10527064;28;20499;-88
2022/10/16 09:32:29;;;;;;;60.72;34.30;;;;;;;;;;10527823;28;20484;-89
2022/10/16 09:37:32;;;;;;;57.63;33.67;;;;;;;;;;10528402;28;20438;-88
2022/10/16 09:42:37;;;;;;;53.47;31.47;;;;;;;;;;10527261;28;20449;-88
2022/10/16 09:47:44;;;;;;;55.00;31.25;;;;;;;;;;10527133;28;20451;-89
2022/10/16 09:52:46;;;;;;;52.65;29.95;;;;;;;;;;10508644;28;20950;-89
2022/10/16 09:57:51;;;;;;;50.88;30.85;;;;;;;;;;10527119;28;20436;-89
2022/10/16 10:02:55;;;;;;;54.10;31.92;;;;;;;;;;10525904;28;20412;-89
2022/10/16 10:07:59;;;;;;;55.33;31.65;;;;;;;;;;10526343;28;20424;-88
2022/10/16 10:13:01;;;;;;;55.37;31.53;;;;;;;;;;10525565;28;20407;-88
2022/10/16 10:18:18;;;;;;;49.30;29.58;;;;;;;;;;10522965;28;20929;-88
2022/10/16 10:23:22;;;;;;;44.17;27.88;;;;;;;;;;10526682;28;20598;-89
2022/10/16 10:28:43;;;;;;;46.23;28.47;;;;;;;;;;10525377;28;20690;-88
2022/10/16 10:33:53;;;;;;;47.10;28.77;;;;;;;;;;10525339;28;20439;-88
2022/10/16 10:38:59;;;;;;;41.05;26.40;;;;;;;;;;10524746;28;20439;-88
2022/10/16 10:44:09;;;;;;;45.95;26.02;;;;;;;;;;10525327;28;20404;-89
2022/10/16 10:49:23;;;;;;;42.47;25.23;;;;;;;;;;10522762;28;20563;-88
2022/10/16 10:54:33;;;;;;;40.80;24.80;;;;;;;;;;10525466;28;20404;-88
2022/10/16 10:59:58;;;;;;;40.25;24.55;;;;;;;;;;10524088;28;20533;-89
2022/10/16 11:05:21;;;;;;;40.07;24.73;;;;;;;;;;10522907;28;20392;-88
2022/10/16 11:10:27;;;;;;;40.70;23.60;;;;;;;;;;10522591;28;20479;-89
2022/10/16 11:15:32;;;;;;;36.92;23.10;;;;;;;;;;10524738;28;20416;-89
2022/10/16 11:20:41;;;;;;;35.55;21.17;;;;;;;;;;10522370;28;20490;-88
2022/10/16 11:25:44;;;;;;;33.78;21.73;;;;;;;;;;10523117;28;20495;-88
2022/10/16 11:30:51;;;;;;;31.73;21.27;;;;;;;;;;10523497;28;20994;-88
2022/10/16 11:36:01;;;;;;;33.67;20.00;;;;;;;;;;10522669;28;20388;-88
2022/10/16 11:41:09;;;;;;;34.83;21.73;;;;;;;;;;10518692;28;20467;-88
2022/10/16 11:46:16;;;;;;;31.70;19.97;;;;;;;;;;10523290;28;20503;-89
2022/10/16 11:51:30;;;;;;;29.38;20.13;;;;;;;;;;10522276;28;20415;-88
2022/10/16 11:56:37;;;;;;;29.25;20.02;;;;;;;;;;10522447;28;20412;-88
2022/10/16 12:01:44;;;;;;;34.87;21.23;;;;;;;;;;10521817;28;20756;-88
2022/10/16 12:06:52;;;;;;;34.88;22.50;;;;;;;;;;10522849;28;20443;-87
2022/10/16 12:11:54;;;;;;;33.83;22.38;;;;;;;;;;10521878;28;20396;-88
2022/10/16 12:16:58;;;;;;;31.90;21.08;;;;;;;;;;10531917;28;20668;-89
2022/10/16 12:22:03;;;;;;;35.22;22.30;;;;;;;;;;10521446;28;20466;-89
2022/10/16 12:27:21;;;;;;;32.92;22.23;;;;;;;;;;10520564;28;20434;-88
2022/10/16 12:32:29;;;;;;;35.28;22.20;;;;;;;;;;10519657;28;20512;-88
2022/10/16 12:37:37;;;;;;;37.95;23.73;;;;;;;;;;10521860;28;20779;-88
2022/10/16 12:42:39;;;;;;;33.10;21.80;;;;;;;;;;10521713;28;20883;-88
2022/10/16 12:47:50;;;;;;;35.65;23.00;;;;;;;;;;10525441;28;20610;-88
2022/10/16 12:52:53;;;;;;;38.42;24.02;;;;;;;;;;10529828;28;20916;-88
2022/10/16 12:58:06;;;;;;;37.17;23.57;;;;;;;;;;10529674;28;20477;-88
2022/10/16 13:03:44;;;;;;;35.73;23.87;;;;;;;;;;10524975;28;20410;-88
2022/10/16 13:09:14;;;;;;;36.42;22.90;;;;;;;;;;10529546;28;20420;-88
2022/10/16 13:14:48;;;;;;;33.53;22.83;;;;;;;;;;10529069;28;20408;-88
2022/10/16 13:19:56;;;;;;;34.47;22.80;;;;;;;;;;10527129;28;20419;-88
2022/10/16 13:25:15;;;;;;;33.92;22.92;;;;;;;;;;10510224;28;20412;-88
2022/10/16 13:30:20;;;;;;;34.28;22.90;;;;;;;;;;10528158;28;20422;-88
2022/10/16 13:35:28;;;;;;;39.03;24.42;;;;;;;;;;10528133;28;21143;-88
2022/10/16 13:40:34;;;;;;;36.33;23.73;;;;;;;;;;10528051;28;20407;-88
2022/10/16 13:45:36;;;;;;;38.30;24.67;;;;;;;;;;10524859;28;20404;-89
2022/10/16 13:50:38;;;;;;;36.33;24.05;;;;;;;;;;10528512;28;20483;-88
2022/10/16 13:55:41;;;;;;;38.40;25.25;;;;;;;;;;10524706;28;20486;-87
2022/10/16 14:00:55;;;;;;;37.92;23.35;;;;;;;;;;10526361;28;20400;-88
2022/10/16 14:06:00;;;;;;;38.43;24.33;;;;;;;;;;10527078;28;20397;-90
2022/10/16 14:11:03;;;;;;;35.72;23.38;;;;;;;;;;10523422;28;20511;-88
2022/10/16 14:16:09;;;;;;;37.03;24.35;;;;;;;;;;10525367;28;20887;-89
2022/10/16 14:21:15;;;;;;;36.40;23.50;;;;;;;;;;10527100;28;20404;-90
2022/10/16 14:26:21;;;;;;;35.77;23.20;;;;;;;;;;10530689;28;20422;-89
2022/10/16 14:31:27;;;;;;;37.10;23.37;;;;;;;;;;10525705;28;20401;-89
2022/10/16 14:36:30;;;;;;;36.85;23.63;;;;;;;;;;10526688;28;20416;-89
2022/10/16 14:41:42;;;;;;;36.72;24.23;;;;;;;;;;10521924;28;20483;-89
2022/10/16 14:46:45;;;;;;;32.73;21.67;;;;;;;;;;10527962;28;20441;-90
2022/10/16 14:51:47;;;;;;;38.22;23.73;;;;;;;;;;10524096;28;20400;-89
2022/10/16 14:56:53;;;;;;;35.40;24.20;;;;;;;;;;10536270;22;20421;-91
2022/10/16 15:01:56;;;;;;;35.75;23.05;;;;;;;;;;10409539;28;20412;-88
2022/10/16 15:06:57;;;;;;;37.90;23.80;;;;;;;;;;10422077;28;20491;-91
2022/10/16 15:12:01;;;;;;;38.22;24.13;;;;;;;;;;10415445;28;20488;-90
2022/10/16 15:17:03;;;;;;;36.67;23.92;;;;;;;;;;10408464;28;20402;-91
2022/10/16 15:22:05;;;;;;;32.50;22.43;;;;;;;;;;10412578;28;20846;-90
2022/10/16 15:27:08;;;;;;;35.33;23.13;;;;;;;;;;10415369;28;20990;-90
2022/10/16 15:32:11;;;;;;;36.47;23.58;;;;;;;;;;10415697;28;20402;-90
2022/10/16 15:37:13;;;;;;;35.83;24.02;;;;;;;;;;10411823;28;20501;-88
2022/10/16 15:42:16;;;;;;;35.22;23.90;;;;;;;;;;10427888;28;20769;-90
2022/10/16 15:47:18;;;;;;;39.92;24.30;;;;;;;;;;10425106;28;20434;-88
2022/10/16 15:52:20;;;;;;;37.72;22.98;;;;;;;;;;10418562;28;20493;-90
2022/10/16 15:57:23;;;;;;;44.00;24.85;;;;;;;;;;10423564;28;20441;-90
2022/10/16 16:02:25;;;;;;;36.00;24.52;;;;;;;;;;10424636;28;20480;-89
2022/10/16 16:07:28;;;;;;;34.10;23.75;;;;;;;;;;10418495;28;20432;-88
2022/10/16 16:12:31;;;;;;;35.53;24.27;;;;;;;;;;10414643;28;20400;-89
2022/10/16 16:17:33;;;;;;;37.13;23.70;;;;;;;;;;10416051;28;20479;-88
2022/10/16 16:22:35;;;;;;;38.33;23.80;;;;;;;;;;10420176;28;20512;-90
2022/10/16 16:27:39;;;;;;;46.20;24.27;;;;;;;;;;10421236;28;20504;-90
2022/10/16 16:32:40;;;;;;;38.67;24.27;;;;;;;;;;10420892;28;20764;-89
2022/10/16 16:37:42;;;;;;;39.25;24.38;;;;;;;;;;10413143;28;20417;-89
2022/10/16 16:42:48;;;;;;;37.60;24.08;;;;;;;;;;10417293;28;20401;-88
2022/10/16 16:47:50;;;;;;;38.23;24.10;;;;;;;;;;10411907;28;20432;-90
2022/10/16 16:52:52;;;;;;;38.77;24.63;;;;;;;;;;10406033;28;20542;-88
2022/10/16 16:57:56;;;;;;;127.90;32.30;;;;;;;;;;10407526;28;20997;-91
2022/10/16 17:02:58;;;;;;;42.92;24.55;;;;;;;;;;10417810;28;20409;-89
2022/10/16 17:08:00;;;;;;;44.35;24.88;;;;;;;;;;10421894;28;20428;-89
2022/10/16 17:13:03;;;;;;;57.90;25.15;;;;;;;;;;10419171;28;20420;-89
2022/10/16 17:18:05;;;;;;;40.53;25.30;;;;;;;;;;10429216;28;20502;-90
2022/10/16 17:23:07;;;;;;;45.17;25.07;;;;;;;;;;10434122;28;20414;-89
2022/10/16 17:28:11;;;;;;;50.63;26.05;;;;;;;;;;10427500;28;20893;-90
2022/10/16 17:33:14;;;;;;;38.40;24.20;;;;;;;;;;10430462;28;20401;-89
2022/10/16 17:38:16;;;;;;;49.65;25.83;;;;;;;;;;10440197;28;20546;-89
2022/10/16 17:43:19;;;;;;;46.30;27.10;;;;;;;;;;10436026;28;20729;-89
2022/10/16 17:48:21;;;;;;;43.13;26.45;;;;;;;;;;10440121;28;20430;-89
2022/10/16 17:53:23;;;;;;;42.67;26.70;;;;;;;;;;10446209;28;21113;-89
2022/10/16 17:58:27;;;;;;;43.58;26.58;;;;;;;;;;10432289;28;20479;-89
2022/10/16 18:03:29;;;;;;;42.22;26.92;;;;;;;;;;10438764;28;20491;-89
2022/10/16 18:08:31;;;;;;;44.47;27.63;;;;;;;;;;10440912;28;20434;-89
2022/10/16 18:13:34;;;;;;;46.93;28.90;;;;;;;;;;10434255;28;20495;-89
2022/10/16 18:18:36;;;;;;;48.45;29.88;;;;;;;;;;10441149;28;20480;-90
2022/10/16 18:23:39;;;;;;;48.07;29.67;;;;;;;;;;10443272;28;20414;-89
2022/10/16 18:28:43;;;;;;;49.75;30.42;;;;;;;;;;10441156;28;20503;-89
2022/10/16 18:33:49;;;;;;;53.63;32.80;;;;;;;;;;10440468;28;20498;-89
2022/10/16 18:38:51;;;;;;;50.00;30.73;;;;;;;;;;10441126;28;20775;-89
2022/10/16 18:43:55;;;;;;;52.67;30.90;;;;;;;;;;10437769;28;20976;-89
2022/10/16 18:48:57;;;;;;;53.25;31.90;;;;;;;;;;10437957;28;20457;-89
2022/10/16 18:54:01;;;;;;;54.65;33.55;;;;;;;;;;10433617;28;20410;-89
2022/10/16 18:59:06;;;;;;;60.67;34.70;;;;;;;;;;10441862;28;20911;-89
2022/10/16 19:04:10;;;;;;;58.95;35.40;;;;;;;;;;10443560;28;21007;-89
2022/10/16 19:09:13;;;;;;;54.73;33.27;;;;;;;;;;10429664;28;20528;-89
2022/10/16 19:14:19;;;;;;;58.97;35.10;;;;;;;;;;10435664;28;20411;-89
2022/10/16 19:19:22;;;;;;;60.25;35.58;;;;;;;;;;10436144;28;20943;-90
2022/10/16 19:24:24;;;;;;;69.50;37.10;;;;;;;;;;10443152;28;20440;-91
2022/10/16 19:29:27;;;;;;;58.63;36.53;;;;;;;;;;10430371;28;20420;-85
2022/10/16 19:34:29;;;;;;;64.80;36.58;;;;;;;;;;10413315;28;20467;-86
2022/10/16 19:39:31;;;;;;;64.55;37.63;;;;;;;;;;10407661;28;20397;-87
2022/10/16 19:44:35;;;;;;;62.50;37.13;;;;;;;;;;10406685;28;20436;-88
2022/10/16 19:49:36;;;;;;;63.00;36.73;;;;;;;;;;10403006;28;20549;-87
2022/10/16 19:54:38;;;;;;;64.13;37.20;;;;;;;;;;10408573;28;20486;-90
2022/10/16 19:59:42;;;;;;;64.57;37.88;;;;;;;;;;10404615;28;20416;-88
2022/10/16 20:04:44;;;;;;;64.20;36.65;;;;;;;;;;10405624;28;20411;-88
2022/10/16 20:09:46;;;;;;;63.33;37.42;;;;;;;;;;10400779;28;20425;-88
2022/10/16 20:14:50;;;;;;;63.72;37.72;;;;;;;;;;10396088;28;20802;-89
2022/10/16 20:19:51;;;;;;;61.92;37.50;;;;;;;;;;10400496;28;20515;-87
2022/10/16 20:24:53;;;;;;;66.10;37.88;;;;;;;;;;10408577;28;20397;-88
2022/10/16 20:29:57;;;;;;;69.07;38.83;;;;;;;;;;10406881;28;20445;-90
2022/10/16 20:34:58;;;;;;;65.97;37.72;;;;;;;;;;10407809;28;20488;-88
2022/10/16 20:40:00;;;;;;;65.03;37.67;;;;;;;;;;10412282;28;20513;-89
2022/10/16 20:45:04;;;;;;;65.50;39.33;;;;;;;;;;10410934;28;20863;-87
2022/10/16 20:50:06;;;;;;;63.92;37.45;;;;;;;;;;10408183;28;20550;-89
2022/10/16 20:55:09;;;;;;;63.58;38.22;;;;;;;;;;10409950;28;20530;-88
2022/10/16 21:00:13;;;;;;;63.07;37.73;;;;;;;;;;10410718;28;20520;-88
2022/10/16 21:05:15;;;;;;;65.47;37.87;;;;;;;;;;10418983;28;20403;-89
2022/10/16 21:10:18;;;;;;;65.78;37.30;;;;;;;;;;10420551;28;20429;-89
2022/10/16 21:15:22;;;;;;;60.60;36.30;;;;;;;;;;10425859;28;20397;-89
2022/10/16 21:20:24;;;;;;;59.03;36.67;;;;;;;;;;10426826;28;20554;-89
2022/10/16 21:25:26;;;;;;;63.42;38.00;;;;;;;;;;10427357;28;20490;-89
2022/10/16 21:30:29;;;;;;;62.37;37.23;;;;;;;;;;10431445;28;20420;-89
2022/10/16 21:35:31;;;;;;;68.53;37.20;;;;;;;;;;10425862;28;20744;-89
2022/10/16 21:40:33;;;;;;;63.72;36.47;;;;;;;;;;10449023;28;20414;-89
2022/10/16 21:45:36;;;;;;;61.53;37.00;;;;;;;;;;10427146;28;20465;-89
2022/10/16 21:50:38;;;;;;;64.55;37.60;;;;;;;;;;10425011;28;20481;-89
2022/10/16 21:55:40;;;;;;;60.03;36.80;;;;;;;;;;10419144;28;20487;-89
2022/10/16 22:00:43;;;;;;;63.87;36.57;;;;;;;;;;10430738;28;20508;-89
2022/10/16 22:05:45;;;;;;;62.53;36.50;;;;;;;;;;10436914;28;20505;-89
2022/10/16 22:10:47;;;;;;;62.40;35.65;;;;;;;;;;10434384;28;20515;-89
2022/10/16 22:15:50;;;;;;;58.47;35.07;;;;;;;;;;10431219;28;20486;-89
2022/10/16 22:20:52;;;;;;;61.57;35.27;;;;;;;;;;10430665;28;20521;-89
2022/10/16 22:25:59;;;;;;;61.20;36.00;;;;;;;;;;10431106;28;20911;-89
2022/10/16 22:31:04;;;;;;;61.13;34.67;;;;;;;;;;10426706;28;20434;-89
2022/10/16 22:36:15;;;;;;;62.55;36.35;;;;;;;;;;10444125;28;20409;-89
2022/10/16 22:41:17;;;;;;;63.42;36.63;;;;;;;;;;10433339;28;20423;-87
2022/10/16 22:46:22;;;;;;;62.72;37.58;;;;;;;;;;10425020;28;20405;-89
2022/10/16 22:51:25;;;;;;;63.43;37.77;;;;;;;;;;10414755;28;20911;-89
2022/10/16 22:56:27;;;;;;;66.63;36.83;;;;;;;;;;10415751;28;20506;-89
2022/10/16 23:01:32;;;;;;;61.97;35.60;;;;;;;;;;10422695;28;20420;-90
2022/10/16 23:06:35;;;;;;;60.30;36.07;;;;;;;;;;10429669;28;20487;-89
2022/10/16 23:11:36;;;;;;;61.97;36.15;;;;;;;;;;10428642;28;20422;-89
2022/10/16 23:16:40;;;;;;;61.05;36.20;;;;;;;;;;10426198;28;20405;-90
2022/10/16 23:21:41;;;;;;;65.27;35.73;;;;;;;;;;10429247;28;20453;-89
2022/10/16 23:26:43;;;;;;;62.38;36.30;;;;;;;;;;10432041;28;20429;-89
2022/10/16 23:31:47;;;;;;;68.72;36.72;;;;;;;;;;10415313;28;20931;-89
2022/10/16 23:36:49;;;;;;;60.75;36.05;;;;;;;;;;10423544;28;20440;-90
2022/10/16 23:41:50;;;;;;;59.65;35.22;;;;;;;;;;10431647;28;20404;-87
2022/10/16 23:46:54;;;;;;;60.50;35.38;;;;;;;;;;10433016;28;20493;-89
2022/10/16 23:51:55;;;;;;;59.50;35.57;;;;;;;;;;10455641;28;20458;-91
2022/10/16 23:56:57;;;;;;;60.60;34.37;;;;;;;;;;10432893;28;20499;-89
